Time;durP1;ratioP1;P1;durP2;ratioP2;P2;SDS_P1;SDS_P2;PMS_P1;PMS_P2;Temp;Humidity;BMP_temperature;BMP_pressure;BME280_temperature;BME280_humidity;BME280_pressure;Samples;Min_cycle;Max_cycle;Signal;HPM_P1;HPM_P2
2023/09/27 00:00:10;;;;;;;19.20;13.90;;;;;;;-128.00;-1.00;-1.00;19053;317;7504863;-32
2023/09/27 00:02:38;;;;;;;20.20;11.90;;;;;;;-128.00;-1.00;-1.00;19063;321;7505290;-35
2023/09/27 00:05:06;;;;;;;29.10;13.10;;;;;;;-128.00;-1.00;-1.00;19017;316;7506960;-31
2023/09/27 00:07:33;;;;;;;19.10;15.80;;;;;;;-128.00;-1.00;-1.00;19067;321;7504857;-37
2023/09/27 00:10:00;;;;;;;20.10;14.90;;;;;;;-128.00;-1.00;-1.00;19058;316;7504571;-32
2023/09/27 00:12:25;;;;;;;20.00;14.90;;;;;;;-128.00;-1.00;-1.00;19089;316;7505591;-33
2023/09/27 00:14:51;;;;;;;31.60;20.20;;;;;;;-128.00;-1.00;-1.00;19075;316;7504906;-35
2023/09/27 00:17:17;;;;;;;28.70;19.70;;;;;;;-128.00;-1.00;-1.00;19489;320;7504875;-32
2023/09/27 00:19:43;;;;;;;26.10;17.00;;;;;;;-128.00;-1.00;-1.00;19061;316;7504748;-34
2023/09/27 00:22:09;;;;;;;32.50;21.60;;;;;;;-128.00;-1.00;-1.00;19499;321;7505003;-31
2023/09/27 00:24:36;;;;;;;34.70;21.60;;;;;;;-128.00;-1.00;-1.00;19472;316;7504761;-34
2023/09/27 00:27:02;;;;;;;21.00;15.30;;;;;;;-128.00;-1.00;-1.00;19069;316;7506214;-35
2023/09/27 00:29:27;;;;;;;31.40;21.70;;;;;;;-128.00;-1.00;-1.00;19081;320;7504639;-35
2023/09/27 00:31:53;;;;;;;29.90;16.00;;;;;;;-128.00;-1.00;-1.00;19085;316;7505201;-35
2023/09/27 00:34:19;;;;;;;28.70;18.30;;;;;;;-128.00;-1.00;-1.00;19503;316;7505391;-35
2023/09/27 00:36:46;;;;;;;32.90;19.00;;;;;;;-128.00;-1.00;-1.00;19488;316;7505342;-35
2023/09/27 01:19:16;;;;;;;37.80;22.90;;;;;;;-99.76;19.20;20020.30;20130;325;8076830;-36
2023/09/27 01:21:42;;;;;;;45.20;23.20;;;;;;;-128.00;-1.00;-1.00;19074;321;7504939;-31
2023/09/27 01:24:09;;;;;;;38.50;21.20;;;;;;;-128.00;-1.00;-1.00;19418;319;7504795;-35
2023/09/27 01:26:34;;;;;;;39.00;20.60;;;;;;;-128.00;-1.00;-1.00;19014;319;7504876;-35
2023/09/27 01:29:00;;;;;;;45.10;19.80;;;;;;;-128.00;-1.00;-1.00;18994;321;7505988;-35
2023/09/27 01:31:26;;;;;;;38.30;22.50;;;;;;;-128.00;-1.00;-1.00;19408;319;7507396;-33
2023/09/27 01:33:52;;;;;;;33.00;20.20;;;;;;;-128.00;-1.00;-1.00;19416;324;7505278;-37
2023/09/27 01:36:18;;;;;;;38.00;20.50;;;;;;;-128.00;-1.00;-1.00;19416;324;7505499;-32
2023/09/27 01:38:45;;;;;;;46.70;21.50;;;;;;;-128.00;-1.00;-1.00;19413;324;7505185;-31
2023/09/27 01:41:11;;;;;;;43.50;23.80;;;;;;;-128.00;-1.00;-1.00;19398;319;7505273;-35
2023/09/27 01:43:37;;;;;;;34.60;21.60;;;;;;;-128.00;-1.00;-1.00;19390;324;7505167;-31
2023/09/27 01:46:03;;;;;;;36.20;21.00;;;;;;;-128.00;-1.00;-1.00;19414;319;7505387;-35
2023/09/27 01:48:30;;;;;;;36.20;20.40;;;;;;;-128.00;-1.00;-1.00;19413;323;7504892;-32
2023/09/27 01:50:56;;;;;;;39.60;20.10;;;;;;;-128.00;-1.00;-1.00;19418;324;7505601;-33
2023/09/27 01:53:22;;;;;;;36.40;20.40;;;;;;;-128.00;-1.00;-1.00;19432;319;7506190;-37
2023/09/27 01:55:48;;;;;;;40.10;21.60;;;;;;;-128.00;-1.00;-1.00;19421;321;7505379;-34
2023/09/27 01:58:15;;;;;;;33.30;21.10;;;;;;;-128.00;-1.00;-1.00;19401;319;7505495;-31
2023/09/27 02:00:41;;;;;;;38.20;21.00;;;;;;;-128.00;-1.00;-1.00;19398;319;7505005;-31
2023/09/27 02:03:07;;;;;;;35.50;19.70;;;;;;;-128.00;-1.00;-1.00;19402;324;7504761;-34
2023/09/27 02:05:33;;;;;;;33.70;20.40;;;;;;;-128.00;-1.00;-1.00;19398;324;7504700;-33
2023/09/27 02:07:59;;;;;;;31.30;19.60;;;;;;;-128.00;-1.00;-1.00;19400;324;7504734;-32
2023/09/27 02:10:26;;;;;;;28.40;19.50;;;;;;;-128.00;-1.00;-1.00;19410;319;7504688;-31
2023/09/27 02:12:52;;;;;;;37.30;20.00;;;;;;;-128.00;-1.00;-1.00;19415;319;7504584;-37
2023/09/27 02:15:19;;;;;;;31.60;19.00;;;;;;;-128.00;-1.00;-1.00;19407;319;7504727;-37
2023/09/27 02:17:45;;;;;;;27.40;17.50;;;;;;;-128.00;-1.00;-1.00;18978;321;7505562;-34
2023/09/27 02:20:13;;;;;;;24.40;16.50;;;;;;;-128.00;-1.00;-1.00;18982;320;7506572;-32
2023/09/27 02:22:40;;;;;;;28.30;17.80;;;;;;;-128.00;-1.00;-1.00;18981;323;7504874;-32
2023/09/27 02:25:11;;;;;;;45.60;18.10;;;;;;;-128.00;-1.00;-1.00;18987;324;7505982;-31
2023/09/27 02:27:37;;;;;;;19.90;14.50;;;;;;;-128.00;-1.00;-1.00;19019;319;7504464;-32
2023/09/27 02:30:06;;;;;;;41.30;19.00;;;;;;;-128.00;-1.00;-1.00;19004;320;7506629;-31
2023/09/27 02:32:32;;;;;;;36.70;18.20;;;;;;;-128.00;-1.00;-1.00;18960;325;7505936;-31
2023/09/27 02:34:58;;;;;;;35.50;17.80;;;;;;;-128.00;-1.00;-1.00;18978;320;7504639;-34
2023/09/27 02:37:24;;;;;;;42.10;14.90;;;;;;;-128.00;-1.00;-1.00;19022;324;7504857;-35
2023/09/27 02:39:50;;;;;;;34.00;17.20;;;;;;;-128.00;-1.00;-1.00;18995;320;7506217;-31
2023/09/27 02:42:15;;;;;;;32.80;16.80;;;;;;;-128.00;-1.00;-1.00;18969;321;7505240;-35
2023/09/27 02:44:42;;;;;;;33.70;19.90;;;;;;;-128.00;-1.00;-1.00;19395;324;7505810;-32
2023/09/27 02:47:08;;;;;;;40.90;18.00;;;;;;;-128.00;-1.00;-1.00;19421;321;7504673;-35
2023/09/27 02:49:35;;;;;;;29.40;17.80;;;;;;;-128.00;-1.00;-1.00;19407;324;7504875;-35
2023/09/27 02:52:01;;;;;;;32.40;17.10;;;;;;;-128.00;-1.00;-1.00;18988;324;7504586;-32
2023/09/27 02:54:29;;;;;;;28.50;16.20;;;;;;;-128.00;-1.00;-1.00;18984;321;7506274;-33
2023/09/27 02:56:55;;;;;;;26.30;17.80;;;;;;;-128.00;-1.00;-1.00;18990;320;7504922;-36
2023/09/27 02:59:21;;;;;;;35.70;17.20;;;;;;;-128.00;-1.00;-1.00;19403;324;7505426;-32
2023/09/27 03:01:48;;;;;;;35.00;19.20;;;;;;;-128.00;-1.00;-1.00;19413;319;7504366;-36
2023/09/27 03:04:15;;;;;;;24.60;15.20;;;;;;;-128.00;-1.00;-1.00;19000;319;7506522;-36
2023/09/27 03:06:42;;;;;;;25.30;15.30;;;;;;;-128.00;-1.00;-1.00;18978;320;7506438;-35
2023/09/27 03:09:11;;;;;;;24.70;15.80;;;;;;;-128.00;-1.00;-1.00;18994;324;7505227;-31
2023/09/27 03:11:39;;;;;;;23.00;16.90;;;;;;;-128.00;-1.00;-1.00;18988;320;7504883;-32
2023/09/27 03:14:05;;;;;;;23.00;14.90;;;;;;;-128.00;-1.00;-1.00;18983;320;7504725;-38
2023/09/27 03:16:30;;;;;;;31.00;13.80;;;;;;;-128.00;-1.00;-1.00;18975;321;7504834;-32
2023/09/27 03:18:59;;;;;;;17.80;13.40;;;;;;;-128.00;-1.00;-1.00;18971;324;7506437;-32
2023/09/27 03:21:26;;;;;;;17.20;14.20;;;;;;;-128.00;-1.00;-1.00;19008;320;7504809;-32
2023/09/27 03:23:53;;;;;;;16.70;14.40;;;;;;;-128.00;-1.00;-1.00;18999;324;7505938;-35
2023/09/27 03:26:22;;;;;;;21.90;14.70;;;;;;;-128.00;-1.00;-1.00;18964;324;7504590;-32
2023/09/27 03:28:53;;;;;;;23.20;12.60;;;;;;;-128.00;-1.00;-1.00;18974;322;7507767;-36
2023/09/27 03:31:19;;;;;;;29.00;16.30;;;;;;;-128.00;-1.00;-1.00;18970;320;7506486;-31
2023/09/27 03:33:46;;;;;;;35.60;13.80;;;;;;;-128.00;-1.00;-1.00;18994;324;7505278;-35
2023/09/27 03:36:12;;;;;;;43.90;13.40;;;;;;;-128.00;-1.00;-1.00;18990;324;7505260;-31
2023/09/27 03:38:38;;;;;;;78.40;13.90;;;;;;;-128.00;-1.00;-1.00;19000;320;7504585;-35
2023/09/27 03:41:11;;;;;;;53.70;12.40;;;;;;;-128.00;-1.00;-1.00;19012;324;7505085;-35
2023/09/27 03:43:37;;;;;;;23.90;11.50;;;;;;;-128.00;-1.00;-1.00;19008;324;7505210;-31
2023/09/27 03:46:06;;;;;;;44.20;15.10;;;;;;;-128.00;-1.00;-1.00;19003;320;7505304;-34
2023/09/27 03:48:32;;;;;;;86.10;16.40;;;;;;;-128.00;-1.00;-1.00;18998;320;7506771;-37
2023/09/27 03:50:58;;;;;;;35.10;13.10;;;;;;;-128.00;-1.00;-1.00;18966;321;7504962;-35
2023/09/27 03:53:24;;;;;;;80.90;17.20;;;;;;;-128.00;-1.00;-1.00;18978;321;7505007;-32
2023/09/27 03:55:50;;;;;;;71.20;14.70;;;;;;;-128.00;-1.00;-1.00;19000;320;7505222;-32
2023/09/27 03:58:16;;;;;;;111.50;14.40;;;;;;;-128.00;-1.00;-1.00;18988;320;7504504;-32
2023/09/27 04:00:42;;;;;;;149.70;16.50;;;;;;;-128.00;-1.00;-1.00;19408;324;7504646;-35
2023/09/27 04:03:08;;;;;;;249.70;19.50;;;;;;;-128.00;-1.00;-1.00;19405;320;7504747;-35
2023/09/27 04:05:34;;;;;;;144.90;17.40;;;;;;;-128.00;-1.00;-1.00;19400;320;7506259;-32
2023/09/27 04:08:00;;;;;;;122.30;17.80;;;;;;;-128.00;-1.00;-1.00;19416;320;7505866;-35
2023/09/27 04:10:28;;;;;;;178.30;18.50;;;;;;;-128.00;-1.00;-1.00;19402;320;7504659;-32
2023/09/27 04:12:54;;;;;;;64.10;12.30;;;;;;;-128.00;-1.00;-1.00;18977;324;7507591;-35
2023/09/27 04:15:20;;;;;;;36.30;13.50;;;;;;;-128.00;-1.00;-1.00;19007;323;7506498;-34
2023/09/27 04:17:45;;;;;;;28.70;13.50;;;;;;;-128.00;-1.00;-1.00;18987;323;7504565;-31
2023/09/27 04:20:16;;;;;;;84.20;13.30;;;;;;;-128.00;-1.00;-1.00;18993;319;7505231;-31
2023/09/27 04:22:43;;;;;;;65.40;17.80;;;;;;;-128.00;-1.00;-1.00;19005;319;7504725;-33
2023/09/27 04:25:12;;;;;;;21.80;14.40;;;;;;;-128.00;-1.00;-1.00;18985;319;7506291;-36
2023/09/27 04:27:39;;;;;;;15.00;13.40;;;;;;;-128.00;-1.00;-1.00;18999;319;7505322;-33
2023/09/27 04:30:11;;;;;;;25.90;12.30;;;;;;;-128.00;-1.00;-1.00;18995;321;7504606;-33
2023/09/27 04:32:44;;;;;;;32.40;14.00;;;;;;;-128.00;-1.00;-1.00;18989;319;7505946;-34
2023/09/27 04:35:10;;;;;;;14.30;12.90;;;;;;;-128.00;-1.00;-1.00;18983;319;7504405;-36
2023/09/27 04:37:36;;;;;;;43.30;12.60;;;;;;;-128.00;-1.00;-1.00;18991;319;7505229;-36
2023/09/27 04:40:07;;;;;;;57.40;12.30;;;;;;;-128.00;-1.00;-1.00;18996;324;7504895;-36
2023/09/27 04:42:32;;;;;;;21.40;11.30;;;;;;;-128.00;-1.00;-1.00;19025;319;7504668;-36
2023/09/27 04:44:58;;;;;;;25.70;12.30;;;;;;;-128.00;-1.00;-1.00;18970;319;7504949;-35
2023/09/27 04:47:24;;;;;;;37.20;12.50;;;;;;;-128.00;-1.00;-1.00;19375;324;7505392;-35
2023/09/27 04:49:50;;;;;;;23.80;14.80;;;;;;;-128.00;-1.00;-1.00;19401;319;7504455;-35
2023/09/27 04:52:17;;;;;;;18.70;13.40;;;;;;;-128.00;-1.00;-1.00;19422;318;7504329;-32
2023/09/27 04:54:43;;;;;;;18.40;13.10;;;;;;;-128.00;-1.00;-1.00;19420;323;7506514;-32
2023/09/27 04:57:09;;;;;;;26.50;14.70;;;;;;;-128.00;-1.00;-1.00;19464;319;7505839;-32
2023/09/27 04:59:36;;;;;;;19.50;13.90;;;;;;;-128.00;-1.00;-1.00;19407;319;7504611;-35
2023/09/27 05:02:02;;;;;;;12.80;11.50;;;;;;;-128.00;-1.00;-1.00;18993;324;7504813;-32
2023/09/27 05:04:28;;;;;;;20.20;14.00;;;;;;;-128.00;-1.00;-1.00;18975;324;7505042;-32
2023/09/27 05:06:54;;;;;;;22.10;15.50;;;;;;;-128.00;-1.00;-1.00;19433;319;7505951;-36
2023/09/27 05:09:20;;;;;;;27.90;17.70;;;;;;;-128.00;-1.00;-1.00;19396;319;7505269;-32
2023/09/27 05:11:46;;;;;;;25.10;15.60;;;;;;;-128.00;-1.00;-1.00;19389;324;7505400;-32
2023/09/27 05:14:13;;;;;;;26.50;17.70;;;;;;;-128.00;-1.00;-1.00;19401;319;7505440;-37
2023/09/27 05:16:39;;;;;;;25.50;18.80;;;;;;;-128.00;-1.00;-1.00;19415;323;7504869;-35
2023/09/27 05:19:05;;;;;;;28.80;19.00;;;;;;;-128.00;-1.00;-1.00;19414;324;7504470;-36
2023/09/27 05:21:32;;;;;;;31.50;17.40;;;;;;;-128.00;-1.00;-1.00;19448;319;7505661;-32
2023/09/27 05:23:58;;;;;;;32.00;18.40;;;;;;;-128.00;-1.00;-1.00;19422;319;7505615;-33
2023/09/27 05:26:24;;;;;;;34.50;18.50;;;;;;;-128.00;-1.00;-1.00;19409;319;7504899;-35
2023/09/27 05:28:50;;;;;;;32.30;21.40;;;;;;;-128.00;-1.00;-1.00;19397;323;7505125;-32
2023/09/27 05:31:16;;;;;;;33.30;19.70;;;;;;;-128.00;-1.00;-1.00;19412;324;7505547;-35
2023/09/27 05:33:42;;;;;;;36.50;22.10;;;;;;;-128.00;-1.00;-1.00;19393;326;7504922;-35
2023/09/27 05:36:09;;;;;;;36.00;21.00;;;;;;;-128.00;-1.00;-1.00;19383;321;7504539;-32
2023/09/27 05:38:35;;;;;;;35.10;20.00;;;;;;;-128.00;-1.00;-1.00;19396;323;7505393;-36
2023/09/27 05:41:01;;;;;;;23.60;16.00;;;;;;;-128.00;-1.00;-1.00;19393;324;7504537;-35
2023/09/27 05:43:27;;;;;;;23.10;16.90;;;;;;;-128.00;-1.00;-1.00;19428;324;7506061;-35
2023/09/27 05:45:54;;;;;;;46.70;21.60;;;;;;;-128.00;-1.00;-1.00;19410;319;7504857;-32
2023/09/27 05:48:20;;;;;;;34.30;22.30;;;;;;;-128.00;-1.00;-1.00;19423;319;7505031;-36
2023/09/27 05:50:47;;;;;;;35.90;21.20;;;;;;;-128.00;-1.00;-1.00;19408;324;7504611;-36
2023/09/27 05:53:16;;;;;;;38.70;21.90;;;;;;;-128.00;-1.00;-1.00;19425;319;7506506;-35
2023/09/27 05:55:42;;;;;;;34.30;18.60;;;;;;;-128.00;-1.00;-1.00;19017;323;7504649;-32
2023/09/27 05:58:08;;;;;;;28.10;18.70;;;;;;;-128.00;-1.00;-1.00;19012;319;7504464;-36
2023/09/27 06:00:46;;;;;;;37.00;19.10;;;;;;;-128.00;-1.00;-1.00;19009;319;7506246;-31
2023/09/27 06:03:12;;;;;;;41.50;20.30;;;;;;;-128.00;-1.00;-1.00;18999;319;7504574;-31
2023/09/27 06:05:39;;;;;;;28.00;18.10;;;;;;;-128.00;-1.00;-1.00;18980;324;7506381;-31
2023/09/27 06:08:05;;;;;;;42.30;21.90;;;;;;;-128.00;-1.00;-1.00;18993;319;7504852;-35
2023/09/27 06:10:30;;;;;;;44.30;25.20;;;;;;;-128.00;-1.00;-1.00;19003;319;7506218;-35
2023/09/27 06:12:56;;;;;;;53.40;28.70;;;;;;;-128.00;-1.00;-1.00;19003;323;7505596;-32
2023/09/27 06:15:22;;;;;;;38.00;23.40;;;;;;;-128.00;-1.00;-1.00;19001;319;7504809;-37
2023/09/27 06:17:48;;;;;;;36.20;21.50;;;;;;;-128.00;-1.00;-1.00;18997;324;7504827;-32
2023/09/27 06:20:21;;;;;;;40.30;26.50;;;;;;;-128.00;-1.00;-1.00;18998;319;7504516;-33
2023/09/27 06:22:48;;;;;;;42.70;25.20;;;;;;;-128.00;-1.00;-1.00;18986;319;7506752;-33
2023/09/27 06:25:16;;;;;;;27.50;20.90;;;;;;;-128.00;-1.00;-1.00;18974;321;7506188;-40
2023/09/27 06:27:41;;;;;;;36.30;22.50;;;;;;;-128.00;-1.00;-1.00;18992;319;7505417;-36
2023/09/27 06:30:07;;;;;;;28.60;20.00;;;;;;;-128.00;-1.00;-1.00;19007;319;7506637;-33
2023/09/27 06:32:35;;;;;;;30.70;21.50;;;;;;;-128.00;-1.00;-1.00;18993;319;7505188;-36
2023/09/27 06:35:10;;;;;;;24.20;17.20;;;;;;;-128.00;-1.00;-1.00;18961;323;7504599;-33
2023/09/27 06:37:36;;;;;;;40.00;20.20;;;;;;;-128.00;-1.00;-1.00;19018;319;7504621;-37
2023/09/27 06:40:07;;;;;;;27.00;17.20;;;;;;;-128.00;-1.00;-1.00;18994;319;7504996;-32
2023/09/27 06:42:33;;;;;;;20.20;16.00;;;;;;;-128.00;-1.00;-1.00;19048;319;7505195;-35
2023/09/27 06:45:00;;;;;;;26.30;19.00;;;;;;;-128.00;-1.00;-1.00;19008;318;7504715;-36
2023/09/27 06:47:27;;;;;;;26.50;15.70;;;;;;;-128.00;-1.00;-1.00;19015;319;7505212;-36
2023/09/27 06:49:55;;;;;;;19.00;16.10;;;;;;;-128.00;-1.00;-1.00;19013;319;7505420;-33
2023/09/27 06:52:21;;;;;;;21.60;15.30;;;;;;;-128.00;-1.00;-1.00;18975;319;7504744;-32
2023/09/27 06:54:47;;;;;;;25.90;17.60;;;;;;;-128.00;-1.00;-1.00;18980;324;7505645;-36
2023/09/27 06:57:13;;;;;;;24.70;15.80;;;;;;;-128.00;-1.00;-1.00;19405;323;7505055;-33
2023/09/27 06:59:39;;;;;;;21.60;16.80;;;;;;;-128.00;-1.00;-1.00;19421;318;7506630;-36
2023/09/27 07:02:06;;;;;;;22.80;17.70;;;;;;;-128.00;-1.00;-1.00;19423;324;7505420;-37
2023/09/27 07:04:32;;;;;;;18.30;13.90;;;;;;;-128.00;-1.00;-1.00;19417;324;7505248;-37
2023/09/27 07:06:58;;;;;;;23.50;16.90;;;;;;;-128.00;-1.00;-1.00;19406;323;7505099;-33
2023/09/27 07:09:24;;;;;;;23.60;14.30;;;;;;;-128.00;-1.00;-1.00;19401;319;7505199;-37
2023/09/27 07:11:50;;;;;;;20.40;13.10;;;;;;;-128.00;-1.00;-1.00;19383;323;7505175;-35
2023/09/27 07:14:19;;;;;;;19.80;12.60;;;;;;;-128.00;-1.00;-1.00;19430;319;7505056;-36
2023/09/27 07:16:46;;;;;;;12.70;9.60;;;;;;;-128.00;-1.00;-1.00;18997;323;7504371;-36
2023/09/27 07:19:11;;;;;;;21.40;9.00;;;;;;;-128.00;-1.00;-1.00;18997;320;7505132;-33
2023/09/27 07:21:37;;;;;;;9.10;7.20;;;;;;;-128.00;-1.00;-1.00;18990;324;7504900;-32
2023/09/27 07:24:04;;;;;;;9.00;7.60;;;;;;;-128.00;-1.00;-1.00;19427;323;7505285;-34
2023/09/27 07:26:30;;;;;;;8.90;5.70;;;;;;;-128.00;-1.00;-1.00;18997;324;7504975;-36
2023/09/27 07:28:56;;;;;;;15.00;6.70;;;;;;;-128.00;-1.00;-1.00;19002;319;7504636;-33
2023/09/27 07:31:21;;;;;;;17.20;6.30;;;;;;;-128.00;-1.00;-1.00;19008;319;7506384;-36
2023/09/27 07:33:54;;;;;;;7.00;5.80;;;;;;;-128.00;-1.00;-1.00;19389;319;7505126;-33
2023/09/27 07:36:21;;;;;;;7.70;6.60;;;;;;;-128.00;-1.00;-1.00;18977;323;7506281;-32
2023/09/27 07:38:47;;;;;;;15.90;6.30;;;;;;;-128.00;-1.00;-1.00;19018;319;7505117;-36
2023/09/27 07:41:15;;;;;;;19.30;6.10;;;;;;;-128.00;-1.00;-1.00;18968;324;7504828;-33
2023/09/27 07:43:41;;;;;;;5.90;4.40;;;;;;;-128.00;-1.00;-1.00;18987;319;7504714;-33
2023/09/27 07:46:07;;;;;;;6.10;3.90;;;;;;;-128.00;-1.00;-1.00;18990;323;7504217;-33
2023/09/27 07:48:35;;;;;;;11.10;5.50;;;;;;;-128.00;-1.00;-1.00;19007;324;7506365;-32
2023/09/27 07:51:02;;;;;;;14.80;7.70;;;;;;;-128.00;-1.00;-1.00;18978;319;7504955;-36
2023/09/27 07:53:28;;;;;;;4.40;4.00;;;;;;;-128.00;-1.00;-1.00;18985;324;7506322;-33
2023/09/27 07:55:56;;;;;;;14.00;5.00;;;;;;;-128.00;-1.00;-1.00;18998;319;7505212;-33
2023/09/27 07:58:22;;;;;;;4.60;3.70;;;;;;;-128.00;-1.00;-1.00;19008;324;7504956;-36
2023/09/27 08:00:48;;;;;;;4.60;4.20;;;;;;;-128.00;-1.00;-1.00;18985;319;7504889;-36
2023/09/27 08:03:18;;;;;;;7.70;3.50;;;;;;;-128.00;-1.00;-1.00;18989;318;7506045;-36
2023/09/27 08:05:45;;;;;;;9.20;3.60;;;;;;;-128.00;-1.00;-1.00;18974;319;7504344;-32
2023/09/27 08:08:11;;;;;;;4.90;4.50;;;;;;;-128.00;-1.00;-1.00;18978;319;7506051;-32
2023/09/27 08:10:43;;;;;;;4.70;3.70;;;;;;;-128.00;-1.00;-1.00;18995;319;7506970;-36
2023/09/27 08:13:12;;;;;;;5.20;4.70;;;;;;;-128.00;-1.00;-1.00;19003;324;7504870;-36
2023/09/27 08:15:42;;;;;;;9.90;5.00;;;;;;;-128.00;-1.00;-1.00;19006;319;7504370;-32
2023/09/27 08:18:08;;;;;;;6.80;3.70;;;;;;;-128.00;-1.00;-1.00;19011;319;7507210;-32
2023/09/27 08:20:35;;;;;;;10.70;3.90;;;;;;;-128.00;-1.00;-1.00;19428;323;7505815;-36
2023/09/27 08:23:02;;;;;;;14.80;3.30;;;;;;;-128.00;-1.00;-1.00;19001;319;7506440;-36
2023/09/27 08:25:28;;;;;;;6.10;4.40;;;;;;;-128.00;-1.00;-1.00;19008;324;7505995;-32
2023/09/27 08:27:54;;;;;;;12.80;3.80;;;;;;;-128.00;-1.00;-1.00;19399;319;7506553;-36
2023/09/27 08:30:21;;;;;;;7.60;4.30;;;;;;;-128.00;-1.00;-1.00;19399;323;7504908;-36
2023/09/27 08:32:47;;;;;;;6.10;2.50;;;;;;;-128.00;-1.00;-1.00;18974;324;7506291;-35
2023/09/27 08:35:12;;;;;;;3.90;3.60;;;;;;;-128.00;-1.00;-1.00;18970;324;7504757;-35
2023/09/27 08:37:38;;;;;;;5.10;2.60;;;;;;;-128.00;-1.00;-1.00;18984;319;7504973;-35
2023/09/27 08:40:12;;;;;;;4.90;3.30;;;;;;;-128.00;-1.00;-1.00;18991;318;7505298;-36
2023/09/27 08:42:40;;;;;;;6.90;3.50;;;;;;;-128.00;-1.00;-1.00;19021;323;7504615;-32
2023/09/27 08:45:09;;;;;;;4.30;3.90;;;;;;;-128.00;-1.00;-1.00;18988;319;7504788;-36
2023/09/27 08:47:34;;;;;;;4.00;3.60;;;;;;;-128.00;-1.00;-1.00;18988;323;7505314;-32
2023/09/27 08:50:00;;;;;;;3.90;3.40;;;;;;;-128.00;-1.00;-1.00;18980;324;7504776;-36
2023/09/27 08:52:27;;;;;;;3.50;2.80;;;;;;;-128.00;-1.00;-1.00;18987;319;7505107;-36
2023/09/27 08:54:53;;;;;;;8.60;3.20;;;;;;;-128.00;-1.00;-1.00;18987;319;7504752;-36
2023/09/27 08:57:19;;;;;;;11.20;3.90;;;;;;;-128.00;-1.00;-1.00;19442;319;7504614;-36
2023/09/27 08:59:45;;;;;;;7.80;3.30;;;;;;;-128.00;-1.00;-1.00;19377;322;7505881;-36
2023/09/27 09:02:11;;;;;;;5.90;3.70;;;;;;;-128.00;-1.00;-1.00;19390;324;7506293;-32
2023/09/27 09:04:37;;;;;;;6.40;3.90;;;;;;;-128.00;-1.00;-1.00;19385;323;7504934;-32
2023/09/27 09:07:06;;;;;;;6.40;3.90;;;;;;;-128.00;-1.00;-1.00;19405;319;7505558;-36
2023/09/27 09:09:33;;;;;;;4.50;3.40;;;;;;;-128.00;-1.00;-1.00;18994;326;7505211;-32
2023/09/27 09:12:09;;;;;;;4.30;3.10;;;;;;;-128.00;-1.00;-1.00;18974;324;7504764;-32
2023/09/27 09:14:39;;;;;;;3.90;3.60;;;;;;;-128.00;-1.00;-1.00;18982;321;7504763;-36
2023/09/27 09:17:07;;;;;;;3.50;2.70;;;;;;;-128.00;-1.00;-1.00;19034;319;7504520;-36
2023/09/27 09:19:37;;;;;;;11.20;3.50;;;;;;;-128.00;-1.00;-1.00;19004;319;7505142;-32
2023/09/27 09:22:08;;;;;;;4.00;2.90;;;;;;;-128.00;-1.00;-1.00;18679;319;8028420;-36
2023/09/27 09:24:45;;;;;;;5.10;2.60;;;;;;;-128.00;-1.00;-1.00;18972;324;7504738;-36
2023/09/27 09:27:13;;;;;;;3.20;2.90;;;;;;;-128.00;-1.00;-1.00;18991;319;7504701;-33
2023/09/27 09:29:46;;;;;;;6.40;3.80;;;;;;;-128.00;-1.00;-1.00;18977;319;7504532;-32
2023/09/27 09:32:17;;;;;;;3.50;3.10;;;;;;;-128.00;-1.00;-1.00;18994;319;7504948;-36
2023/09/27 09:34:44;;;;;;;8.70;3.70;;;;;;;-128.00;-1.00;-1.00;18997;324;7504700;-32
2023/09/27 09:37:23;;;;;;;4.00;3.50;;;;;;;-128.00;-1.00;-1.00;18983;319;7504931;-33
2023/09/27 09:39:52;;;;;;;12.20;4.70;;;;;;;-128.00;-1.00;-1.00;19008;319;7504743;-32
2023/09/27 09:42:31;;;;;;;2.90;2.60;;;;;;;-128.00;-1.00;-1.00;18997;319;7505267;-36
2023/09/27 09:45:05;;;;;;;13.70;3.90;;;;;;;-128.00;-1.00;-1.00;19013;324;7506339;-32
2023/09/27 09:47:31;;;;;;;6.10;4.00;;;;;;;-128.00;-1.00;-1.00;18987;321;7504815;-31
2023/09/27 09:49:57;;;;;;;5.80;3.50;;;;;;;-128.00;-1.00;-1.00;18999;319;7504631;-32
2023/09/27 09:52:26;;;;;;;4.70;4.20;;;;;;;-128.00;-1.00;-1.00;19022;324;7504879;-32
2023/09/27 09:54:52;;;;;;;6.30;4.40;;;;;;;-128.00;-1.00;-1.00;19007;319;7504511;-32
2023/09/27 09:57:19;;;;;;;8.80;3.50;;;;;;;-128.00;-1.00;-1.00;18977;326;7504941;-35
2023/09/27 10:02:49;;;;;;;4.20;2.30;;;;;;;-128.00;-1.00;-1.00;19005;324;7505058;-35
2023/09/27 10:05:14;;;;;;;5.50;3.60;;;;;;;-128.00;-1.00;-1.00;19005;320;7505604;-33
2023/09/27 10:07:42;;;;;;;13.40;4.20;;;;;;;-128.00;-1.00;-1.00;18969;319;7504745;-32
2023/09/27 10:10:08;;;;;;;6.20;2.80;;;;;;;-128.00;-1.00;-1.00;19008;319;7506767;-36
2023/09/27 10:12:34;;;;;;;5.90;3.20;;;;;;;-128.00;-1.00;-1.00;18990;323;7505443;-32
2023/09/27 10:15:00;;;;;;;4.90;3.30;;;;;;;-128.00;-1.00;-1.00;18999;324;7506407;-32
2023/09/27 10:17:29;;;;;;;5.20;4.10;;;;;;;-128.00;-1.00;-1.00;19629;319;7505311;-32
2023/09/27 10:20:12;;;;;;;9.40;2.90;;;;;;;-128.00;-1.00;-1.00;19426;324;7505913;-36
2023/09/27 10:22:39;;;;;;;13.30;3.40;;;;;;;-128.00;-1.00;-1.00;18992;324;7504613;-33
2023/09/27 10:25:32;;;;;;;4.50;3.30;;;;;;;-128.00;-1.00;-1.00;19406;319;7506253;-32
2023/09/27 10:31:05;;;;;;;14.90;4.20;;;;;;;-128.00;-1.00;-1.00;54965;319;7505168;-32
2023/09/27 10:33:31;;;;;;;6.10;3.40;;;;;;;-128.00;-1.00;-1.00;30294;323;7504516;-32
2023/09/27 10:36:33;;;;;;;7.80;3.10;;;;;;;-128.00;-1.00;-1.00;27536;319;7506668;-36
2023/09/27 10:38:59;;;;;;;12.00;3.50;;;;;;;-128.00;-1.00;-1.00;28412;319;7504716;-32
2023/09/27 10:41:42;;;;;;;12.00;3.50;;;;;;;-128.00;-1.00;-1.00;19901;324;7505006;-36
2023/09/27 10:44:09;;;;;;;4.30;2.80;;;;;;;-128.00;-1.00;-1.00;22291;319;7506700;-36
2023/09/27 10:46:48;;;;;;;6.30;2.60;;;;;;;-128.00;-1.00;-1.00;20136;319;7504808;-36
2023/09/27 10:49:25;;;;;;;6.80;2.80;;;;;;;-128.00;-1.00;-1.00;19013;324;7504664;-36
2023/09/27 10:51:53;;;;;;;7.90;4.00;;;;;;;-128.00;-1.00;-1.00;23391;323;7506639;-36
2023/09/27 10:54:22;;;;;;;3.50;2.90;;;;;;;-128.00;-1.00;-1.00;26406;324;7504325;-35
2023/09/27 10:56:53;;;;;;;10.80;3.60;;;;;;;-128.00;-1.00;-1.00;20538;319;7505852;-32
2023/09/27 10:59:23;;;;;;;8.30;2.30;;;;;;;-128.00;-1.00;-1.00;19525;319;7504557;-32
2023/09/27 11:01:48;;;;;;;4.40;3.40;;;;;;;-128.00;-1.00;-1.00;19024;324;7504702;-32
2023/09/27 11:04:14;;;;;;;4.90;4.30;;;;;;;-128.00;-1.00;-1.00;19418;319;7504755;-35
2023/09/27 11:06:45;;;;;;;4.80;2.70;;;;;;;-128.00;-1.00;-1.00;19408;319;7505563;-32
2023/09/27 11:09:13;;;;;;;4.50;2.60;;;;;;;-128.00;-1.00;-1.00;20117;324;7504838;-32
2023/09/27 11:11:47;;;;;;;5.20;2.90;;;;;;;-128.00;-1.00;-1.00;19449;319;7506144;-35
2023/09/27 11:14:25;;;;;;;3.60;2.50;;;;;;;-128.00;-1.00;-1.00;22952;319;7506458;-36
2023/09/27 11:16:52;;;;;;;7.20;3.20;;;;;;;-128.00;-1.00;-1.00;33606;319;7504359;-33
2023/09/27 11:19:30;;;;;;;9.80;3.70;;;;;;;-128.00;-1.00;-1.00;19448;319;7506155;-32
2023/09/27 11:21:57;;;;;;;3.90;2.60;;;;;;;-128.00;-1.00;-1.00;19432;324;7504671;-36
2023/09/27 11:24:23;;;;;;;11.50;2.80;;;;;;;-128.00;-1.00;-1.00;18959;319;7505049;-32
2023/09/27 11:26:49;;;;;;;5.90;2.60;;;;;;;-128.00;-1.00;-1.00;23320;319;7505610;-36
2023/09/27 11:29:16;;;;;;;6.60;3.00;;;;;;;-128.00;-1.00;-1.00;19396;319;7505430;-32
2023/09/27 11:31:41;;;;;;;4.00;2.50;;;;;;;-128.00;-1.00;-1.00;18996;319;7504435;-32
2023/09/27 11:34:19;;;;;;;4.50;2.70;;;;;;;-128.00;-1.00;-1.00;62191;319;7504384;-36
2023/09/27 11:36:49;;;;;;;11.70;1.90;;;;;;;-128.00;-1.00;-1.00;93805;319;7504052;-36
2023/09/27 11:39:16;;;;;;;18.20;2.70;;;;;;;-128.00;-1.00;-1.00;78508;319;4503408;-31
2023/09/27 11:41:43;;;;;;;5.30;2.10;;;;;;;-128.00;-1.00;-1.00;87221;319;3003724;-36
2023/09/27 11:44:23;;;;;;;6.00;2.00;;;;;;;-128.00;-1.00;-1.00;42883;319;7504999;-31
2023/09/27 11:46:49;;;;;;;7.70;2.10;;;;;;;-128.00;-1.00;-1.00;100600;320;1003421;-33
2023/09/27 11:49:16;;;;;;;15.00;2.40;;;;;;;-128.00;-1.00;-1.00;100615;319;1002424;-35
2023/09/27 11:51:42;;;;;;;11.00;2.10;;;;;;;-128.00;-1.00;-1.00;100762;319;1003051;-32
2023/09/27 11:54:08;;;;;;;5.90;1.70;;;;;;;-128.00;-1.00;-1.00;100750;319;1003116;-36
2023/09/27 11:56:35;;;;;;;8.80;2.20;;;;;;;-128.00;-1.00;-1.00;99720;319;1063065;-36
2023/09/27 11:59:02;;;;;;;8.00;2.50;;;;;;;-128.00;-1.00;-1.00;100571;319;1002744;-32
2023/09/27 12:01:28;;;;;;;7.80;1.60;;;;;;;-128.00;-1.00;-1.00;100601;319;1003205;-32
2023/09/27 12:03:54;;;;;;;6.90;2.40;;;;;;;-128.00;-1.00;-1.00;100467;319;1005100;-32
2023/09/27 12:06:19;;;;;;;1.10;1.00;;;;;;;-128.00;-1.00;-1.00;100668;319;1004758;-34
2023/09/27 12:08:45;;;;;;;2.80;2.00;;;;;;;-128.00;-1.00;-1.00;100564;319;1002810;-32